Time;durP1;ratioP1;P1;durP2;ratioP2;P2;SDS_P1;SDS_P2;PMS_P1;PMS_P2;Temp;Humidity;BMP_temperature;BMP_pressure;BME280_temperature;BME280_humidity;BME280_pressure;Samples;Min_cycle;Max_cycle;Signal;HPM_P1;HPM_P2
2022/06/19 00:02:15;;;;;;;0.00;0.00;;;23.10;72.00;;;;;;5083744;28;20039;-76
2022/06/19 00:04:41;;;;;;;0.00;0.00;;;23.10;72.30;;;;;;5083056;28;20168;-75
2022/06/19 00:07:08;;;;;;;0.00;0.00;;;23.10;72.60;;;;;;5092002;28;20219;-80
2022/06/19 00:09:34;;;;;;;0.00;0.00;;;23.10;72.90;;;;;;5087960;28;20043;-78
2022/06/19 00:11:59;;;;;;;0.00;0.00;;;23.10;73.10;;;;;;5080118;28;20106;-75
2022/06/19 00:14:25;;;;;;;0.00;0.00;;;23.00;73.20;;;;;;5083357;28;20016;-77
2022/06/19 00:16:51;;;;;;;0.00;0.00;;;23.00;73.40;;;;;;5082706;28;20088;-75
2022/06/19 00:19:17;;;;;;;0.00;0.00;;;23.00;73.70;;;;;;5089659;28;20032;-80
2022/06/19 00:21:44;;;;;;;0.00;0.00;;;23.00;74.00;;;;;;5079128;28;20138;-75
2022/06/19 00:24:10;;;;;;;0.00;0.00;;;22.90;74.10;;;;;;5085046;28;20029;-75
2022/06/19 00:26:36;;;;;;;0.00;0.00;;;22.90;74.40;;;;;;5087088;28;20230;-75
2022/06/19 00:29:01;;;;;;;0.00;0.00;;;22.90;74.80;;;;;;5085249;28;20261;-75
2022/06/19 00:31:27;;;;;;;0.00;0.00;;;22.90;75.10;;;;;;5086699;28;20107;-79
2022/06/19 00:33:54;;;;;;;0.00;0.00;;;22.90;75.40;;;;;;5084286;28;20084;-77
2022/06/19 00:36:21;;;;;;;0.00;0.00;;;22.80;75.70;;;;;;5088451;28;20211;-75
2022/06/19 00:38:48;;;;;;;0.00;0.00;;;22.80;75.90;;;;;;5085265;28;20084;-75
2022/06/19 00:41:14;;;;;;;0.00;0.00;;;22.80;76.20;;;;;;5085143;28;20266;-75
2022/06/19 00:44:13;;;;;;;0.00;0.00;;;22.80;76.40;;;;;;5084435;28;20092;-75
2022/06/19 00:46:44;;;;;;;0.00;0.00;;;22.80;76.70;;;;;;5042770;28;20024;-75
2022/06/19 00:49:13;;;;;;;0.00;0.00;;;22.70;76.80;;;;;;5085941;28;20036;-75
2022/06/19 00:51:39;;;;;;;0.00;0.00;;;22.70;77.00;;;;;;5083473;28;20199;-75
2022/06/19 00:54:06;;;;;;;0.00;0.00;;;22.70;77.00;;;;;;5082128;28;20279;-75
2022/06/19 00:56:32;;;;;;;0.00;0.00;;;22.60;76.50;;;;;;5086008;28;20058;-78
2022/06/19 00:58:58;;;;;;;0.00;0.00;;;22.60;76.20;;;;;;5082041;28;20119;-76
2022/06/19 01:01:27;;;;;;;0.00;0.00;;;22.60;76.30;;;;;;5067006;28;20048;-76
2022/06/19 01:03:52;;;;;;;0.00;0.00;;;22.50;76.30;;;;;;5065482;28;20032;-75
2022/06/19 01:06:19;;;;;;;0.00;0.00;;;22.50;76.40;;;;;;5046400;28;20257;-76
2022/06/19 01:08:47;;;;;;;0.00;0.00;;;22.40;76.40;;;;;;5064338;28;20021;-75
2022/06/19 01:11:17;;;;;;;0.00;0.00;;;22.40;76.70;;;;;;5050478;28;20060;-76
2022/06/19 01:13:43;;;;;;;0.00;0.00;;;22.30;76.80;;;;;;5051997;28;20024;-75
2022/06/19 01:16:10;;;;;;;0.00;0.00;;;22.30;76.90;;;;;;5060945;28;20308;-76
2022/06/19 01:18:37;;;;;;;0.00;0.00;;;22.30;77.20;;;;;;5060441;28;20080;-79
2022/06/19 01:21:20;;;;;;;0.00;0.00;;;22.20;77.60;;;;;;5063490;28;20074;-77
2022/06/19 01:24:27;;;;;;;0.00;0.00;;;22.10;77.90;;;;;;5071515;28;20049;-76
2022/06/19 01:26:59;;;;;;;0.00;0.00;;;22.10;78.10;;;;;;5034283;28;20103;-75
2022/06/19 01:29:26;;;;;;;0.00;0.00;;;22.00;78.30;;;;;;5063310;28;20043;-75
2022/06/19 01:31:55;;;;;;;0.00;0.00;;;22.00;79.30;;;;;;5047413;28;20025;-76
2022/06/19 01:34:28;;;;;;;0.00;0.00;;;22.00;79.00;;;;;;5063431;28;20021;-78
2022/06/19 01:37:17;;;;;;;0.00;0.00;;;21.90;79.30;;;;;;5063054;28;20043;-75
2022/06/19 01:40:11;;;;;;;0.00;0.00;;;21.90;79.50;;;;;;5063693;28;20016;-77
2022/06/19 01:42:37;;;;;;;0.00;0.00;;;21.90;79.70;;;;;;5059528;28;20043;-79
2022/06/19 01:45:05;;;;;;;0.00;0.00;;;21.80;79.90;;;;;;5063120;28;20033;-75
2022/06/19 01:47:30;;;;;;;0.00;0.00;;;21.80;80.20;;;;;;5050965;28;20017;-75
2022/06/19 01:49:58;;;;;;;0.00;0.00;;;21.70;80.30;;;;;;5061693;28;20063;-76
2022/06/19 01:52:25;;;;;;;0.00;0.00;;;21.70;80.30;;;;;;5067459;28;20036;-75
2022/06/19 01:55:01;;;;;;;0.00;0.00;;;21.70;80.60;;;;;;5065852;28;20067;-75
2022/06/19 01:57:28;;;;;;;0.00;0.00;;;21.70;80.90;;;;;;5064216;28;20429;-75
2022/06/19 01:59:57;;;;;;;0.00;0.00;;;21.60;81.10;;;;;;5064499;28;20374;-75
2022/06/19 02:02:23;;;;;;;0.00;0.00;;;21.60;81.30;;;;;;5063292;28;20079;-76
2022/06/19 02:04:50;;;;;;;0.00;0.00;;;21.60;81.50;;;;;;5063473;28;20044;-75
2022/06/19 02:07:21;;;;;;;0.00;0.00;;;21.60;81.70;;;;;;5064664;28;20021;-75
2022/06/19 02:09:48;;;;;;;0.00;0.00;;;21.50;81.70;;;;;;5057392;28;20016;-77
2022/06/19 02:12:14;;;;;;;0.00;0.00;;;21.50;82.10;;;;;;5059576;28;20177;-76
2022/06/19 02:14:40;;;;;;;0.00;0.00;;;21.50;82.30;;;;;;5046042;28;20059;-77
2022/06/19 02:17:18;;;;;;;0.00;0.00;;;21.40;82.50;;;;;;5054880;28;20017;-75
2022/06/19 02:19:44;;;;;;;0.00;0.00;;;21.40;82.50;;;;;;5040532;28;20016;-76
2022/06/19 02:22:14;;;;;;;0.00;0.00;;;21.30;82.80;;;;;;5047701;28;20267;-75
2022/06/19 02:24:41;;;;;;;0.00;0.00;;;21.30;82.90;;;;;;5068628;28;20029;-75
2022/06/19 02:27:08;;;;;;;0.00;0.00;;;21.20;83.10;;;;;;5044149;28;20545;-76
2022/06/19 02:29:36;;;;;;;0.00;0.00;;;21.20;83.30;;;;;;5067064;28;20016;-75
2022/06/19 02:32:03;;;;;;;0.00;0.00;;;21.20;83.60;;;;;;5051955;28;20039;-77
2022/06/19 02:34:37;;;;;;;0.00;0.00;;;21.10;83.70;;;;;;5047152;28;20035;-75
2022/06/19 02:37:05;;;;;;;0.00;0.00;;;21.10;84.00;;;;;;5045126;28;20029;-75
2022/06/19 02:39:48;;;;;;;0.00;0.00;;;21.10;84.20;;;;;;5066058;28;20032;-75
2022/06/19 02:42:24;;;;;;;0.00;0.00;;;21.10;84.40;;;;;;5069509;28;20339;-75
2022/06/19 02:44:54;;;;;;;0.00;0.00;;;21.10;84.60;;;;;;5070739;28;20020;-78
2022/06/19 02:47:22;;;;;;;0.00;0.00;;;21.10;84.90;;;;;;5068730;28;20304;-79
2022/06/19 02:49:48;;;;;;;0.00;0.00;;;21.00;84.90;;;;;;5050818;28;20029;-77
2022/06/19 02:52:13;;;;;;;0.00;0.00;;;21.00;85.00;;;;;;5063095;28;20083;-75
2022/06/19 02:54:40;;;;;;;0.00;0.00;;;21.00;85.20;;;;;;5065941;28;20198;-76
2022/06/19 02:57:07;;;;;;;0.00;0.00;;;21.00;85.40;;;;;;5066405;28;20017;-75
2022/06/19 02:59:33;;;;;;;0.00;0.00;;;20.90;85.70;;;;;;5070235;28;20089;-79
2022/06/19 03:01:59;;;;;;;0.00;0.00;;;20.90;86.00;;;;;;5047473;28;20320;-76
2022/06/19 03:04:29;;;;;;;0.00;0.00;;;20.90;86.10;;;;;;5072982;28;20051;-75
2022/06/19 03:06:56;;;;;;;0.00;0.00;;;20.90;86.20;;;;;;5074592;28;20131;-76
2022/06/19 03:09:21;;;;;;;0.00;0.00;;;20.80;86.30;;;;;;5065721;28;20086;-76
2022/06/19 03:11:47;;;;;;;0.00;0.00;;;20.80;86.30;;;;;;5050435;28;20296;-79
2022/06/19 03:14:13;;;;;;;0.00;0.00;;;20.80;86.60;;;;;;5066181;28;20025;-76
2022/06/19 03:16:39;;;;;;;0.00;0.00;;;20.70;86.80;;;;;;5073247;28;20024;-79
2022/06/19 03:19:05;;;;;;;0.00;0.00;;;20.70;86.80;;;;;;5072678;28;20195;-76
2022/06/19 03:21:31;;;;;;;0.00;0.00;;;20.70;86.90;;;;;;5050035;28;20304;-77
2022/06/19 03:23:56;;;;;;;0.00;0.00;;;20.70;87.10;;;;;;5061444;28;20040;-76
2022/06/19 03:26:22;;;;;;;0.00;0.00;;;20.70;87.10;;;;;;5066961;28;20024;-76
2022/06/19 03:28:48;;;;;;;0.00;0.00;;;20.70;87.30;;;;;;5049600;28;20200;-76
2022/06/19 03:31:20;;;;;;;0.00;0.00;;;20.70;87.40;;;;;;5049796;28;20020;-76
2022/06/19 03:33:46;;;;;;;0.00;0.00;;;20.60;87.40;;;;;;5069474;28;20016;-77
2022/06/19 03:36:12;;;;;;;0.00;0.00;;;20.60;87.60;;;;;;5064850;28;20024;-75
2022/06/19 03:38:37;;;;;;;0.00;0.00;;;20.60;87.60;;;;;;5071056;28;20074;-77
2022/06/19 03:41:03;;;;;;;0.00;0.00;;;20.60;87.90;;;;;;5072621;28;20092;-75
2022/06/19 03:43:28;;;;;;;0.00;0.00;;;20.60;88.00;;;;;;5065807;28;20036;-76
2022/06/19 03:45:59;;;;;;;0.00;0.00;;;20.60;88.00;;;;;;5068281;28;20050;-75
2022/06/19 03:48:25;;;;;;;0.00;0.00;;;20.60;88.10;;;;;;5067527;28;20032;-75
2022/06/19 03:50:53;;;;;;;0.00;0.00;;;20.60;88.20;;;;;;5070724;28;20024;-75
2022/06/19 03:53:19;;;;;;;0.00;0.00;;;20.60;88.20;;;;;;5061151;28;20044;-78
2022/06/19 03:55:46;;;;;;;0.00;0.00;;;20.60;88.20;;;;;;5064288;28;20060;-75
2022/06/19 03:58:11;;;;;;;0.00;0.00;;;20.60;88.10;;;;;;5066326;28;20045;-75
2022/06/19 04:00:37;;;;;;;0.00;0.00;;;20.70;88.10;;;;;;5060157;28;20064;-79
2022/06/19 04:03:03;;;;;;;0.00;0.00;;;20.70;88.10;;;;;;5050508;28;20048;-75
2022/06/19 04:05:29;;;;;;;0.00;0.00;;;20.70;88.10;;;;;;5063993;28;20032;-76
2022/06/19 04:07:55;;;;;;;0.00;0.00;;;20.70;88.00;;;;;;5053526;28;20028;-76
2022/06/19 04:10:21;;;;;;;0.00;0.00;;;20.70;88.00;;;;;;5060559;28;20028;-75
2022/06/19 04:12:47;;;;;;;0.00;0.00;;;20.60;88.10;;;;;;5048539;28;20025;-76
2022/06/19 04:15:13;;;;;;;0.00;0.00;;;20.70;88.30;;;;;;5069495;28;20061;-75
2022/06/19 04:17:39;;;;;;;0.00;0.00;;;20.70;88.40;;;;;;5061590;28;20063;-75
2022/06/19 04:20:07;;;;;;;0.00;0.00;;;20.70;88.40;;;;;;5054772;28;20052;-76
2022/06/19 04:22:34;;;;;;;0.00;0.00;;;20.70;88.40;;;;;;5043151;28;20036;-74
2022/06/19 04:24:59;;;;;;;0.00;0.00;;;20.70;88.60;;;;;;5052894;28;20031;-75
2022/06/19 04:27:25;;;;;;;0.00;0.00;;;20.70;88.90;;;;;;5063833;28;20080;-75
2022/06/19 04:29:51;;;;;;;0.00;0.00;;;20.70;89.00;;;;;;5051671;28;20357;-75
2022/06/19 04:32:16;;;;;;;0.00;0.00;;;20.70;89.20;;;;;;5063538;28;20119;-78
2022/06/19 04:34:42;;;;;;;0.00;0.00;;;20.70;89.30;;;;;;5072808;28;20092;-75
2022/06/19 04:37:08;;;;;;;0.00;0.00;;;20.70;89.30;;;;;;5047410;28;20017;-76
2022/06/19 04:39:34;;;;;;;0.00;0.00;;;20.70;89.50;;;;;;5065819;28;20070;-75
2022/06/19 04:42:00;;;;;;;0.00;0.00;;;20.70;89.60;;;;;;5071742;28;20128;-75
2022/06/19 04:44:26;;;;;;;0.00;0.00;;;20.70;90.00;;;;;;5049585;28;20028;-78
2022/06/19 04:46:52;;;;;;;0.00;0.00;;;20.70;90.00;;;;;;5062405;28;20091;-75
2022/06/19 04:49:18;;;;;;;0.00;0.00;;;20.80;90.10;;;;;;5053139;28;20076;-76
2022/06/19 04:51:43;;;;;;;0.00;0.00;;;20.80;90.00;;;;;;5069173;28;20115;-74
2022/06/19 04:54:10;;;;;;;0.00;0.00;;;20.80;90.10;;;;;;5065577;28;20024;-75
2022/06/19 04:56:36;;;;;;;0.00;0.00;;;20.80;90.10;;;;;;5056803;28;20104;-75
2022/06/19 04:59:05;;;;;;;0.00;0.00;;;20.90;90.10;;;;;;5050785;28;20052;-76
2022/06/19 05:01:34;;;;;;;0.00;0.00;;;20.90;90.10;;;;;;5078548;28;20063;-74
2022/06/19 05:04:03;;;;;;;0.00;0.00;;;20.90;90.20;;;;;;5084149;28;20028;-75
2022/06/19 05:06:29;;;;;;;0.00;0.00;;;20.90;90.20;;;;;;5082599;28;20036;-74
2022/06/19 05:08:55;;;;;;;0.00;0.00;;;20.90;90.30;;;;;;5085080;28;20021;-75
2022/06/19 05:11:23;;;;;;;0.00;0.00;;;20.90;90.40;;;;;;5086584;28;20349;-75
2022/06/19 05:13:48;;;;;;;0.00;0.00;;;20.90;90.40;;;;;;5090829;28;20095;-75
2022/06/19 05:16:20;;;;;;;0.00;0.00;;;21.00;90.50;;;;;;5086739;28;20449;-74
2022/06/19 05:18:46;;;;;;;0.00;0.00;;;21.00;90.60;;;;;;5090036;28;20011;-74
2022/06/19 05:21:13;;;;;;;0.00;0.00;;;21.00;90.60;;;;;;5091429;28;20146;-75
2022/06/19 05:23:42;;;;;;;0.00;0.00;;;21.10;90.60;;;;;;5085770;28;20019;-76
2022/06/19 05:26:12;;;;;;;0.00;0.00;;;21.10;90.60;;;;;;5089403;28;20055;-75
2022/06/19 05:28:38;;;;;;;0.00;0.00;;;21.10;90.70;;;;;;5086782;28;20066;-75
2022/06/19 05:31:04;;;;;;;0.00;0.00;;;21.20;90.60;;;;;;5088149;28;20021;-75
2022/06/19 05:33:32;;;;;;;0.00;0.00;;;21.20;90.40;;;;;;5083064;28;20024;-75
2022/06/19 05:35:58;;;;;;;0.00;0.00;;;21.20;90.30;;;;;;5085863;28;20032;-76
2022/06/19 05:38:24;;;;;;;0.00;0.00;;;21.30;89.70;;;;;;5085067;28;20027;-79
2022/06/19 05:40:51;;;;;;;0.00;0.00;;;21.30;89.30;;;;;;5082088;28;20108;-74
2022/06/19 05:43:18;;;;;;;0.00;0.00;;;21.40;89.10;;;;;;5085677;28;20055;-75
2022/06/19 05:45:55;;;;;;;0.00;0.00;;;21.40;89.00;;;;;;5088687;28;20712;-75
2022/06/19 05:48:21;;;;;;;0.00;0.00;;;21.40;88.80;;;;;;5085375;28;20013;-77
2022/06/19 05:51:18;;;;;;;0.00;0.00;;;21.50;88.40;;;;;;5076991;28;20036;-78
2022/06/19 05:53:50;;;;;;;0.00;0.00;;;21.50;88.40;;;;;;5075267;28;20052;-75
2022/06/19 05:56:15;;;;;;;0.00;0.00;;;21.60;88.20;;;;;;5088037;28;20077;-76
2022/06/19 05:58:41;;;;;;;0.00;0.00;;;21.60;88.70;;;;;;5083523;28;20064;-74
2022/06/19 06:01:08;;;;;;;0.00;0.00;;;21.70;89.00;;;;;;5066847;28;20398;-77
2022/06/19 06:03:33;;;;;;;0.00;0.00;;;21.80;89.00;;;;;;5054702;28;20092;-76
2022/06/19 06:06:04;;;;;;;0.00;0.00;;;21.80;89.00;;;;;;5060049;28;20028;-74
2022/06/19 06:08:30;;;;;;;0.00;0.00;;;21.90;88.90;;;;;;5047526;28;20020;-74
2022/06/19 06:10:56;;;;;;;0.00;0.00;;;22.10;87.90;;;;;;5068758;28;20585;-74
2022/06/19 06:13:22;;;;;;;0.00;0.00;;;22.50;88.20;;;;;;5044896;28;20311;-75
2022/06/19 06:15:49;;;;;;;0.00;0.00;;;23.00;88.20;;;;;;5066025;28;20036;-75
2022/06/19 06:18:15;;;;;;;0.00;0.00;;;23.70;87.10;;;;;;5046652;28;20741;-75
2022/06/19 06:20:42;;;;;;;0.00;0.00;;;24.50;84.40;;;;;;5075107;28;20028;-75
2022/06/19 06:23:08;;;;;;;0.00;0.00;;;25.30;81.30;;;;;;5062301;28;20100;-76
2022/06/19 06:25:35;;;;;;;0.00;0.00;;;26.10;78.20;;;;;;5071533;28;20193;-76
2022/06/19 06:28:01;;;;;;;0.00;0.00;;;26.70;76.30;;;;;;5066411;28;20020;-77
2022/06/19 06:30:27;;;;;;;0.00;0.00;;;27.40;74.10;;;;;;5053473;28;20020;-76
2022/06/19 06:32:52;;;;;;;0.00;0.00;;;28.00;72.00;;;;;;5049496;28;20185;-77
2022/06/19 06:35:18;;;;;;;0.00;0.00;;;28.50;69.00;;;;;;5069900;28;20078;-76
2022/06/19 06:37:45;;;;;;;0.00;0.00;;;28.90;67.30;;;;;;5067514;28;20021;-76
2022/06/19 06:40:11;;;;;;;0.00;0.00;;;29.30;64.70;;;;;;5071746;28;20024;-75
2022/06/19 06:42:37;;;;;;;0.00;0.00;;;29.80;65.10;;;;;;5071058;28;20131;-79
2022/06/19 06:45:03;;;;;;;0.00;0.00;;;30.30;63.90;;;;;;5057922;28;20566;-75
2022/06/19 06:47:29;;;;;;;0.00;0.00;;;30.90;62.80;;;;;;5070340;28;20051;-75
2022/06/19 06:49:55;;;;;;;0.00;0.00;;;31.40;60.80;;;;;;5051947;28;20020;-74
2022/06/19 06:52:20;;;;;;;0.00;0.00;;;31.90;58.40;;;;;;5069978;28;20250;-76
2022/06/19 06:54:46;;;;;;;0.00;0.00;;;32.20;57.50;;;;;;5069635;28;20043;-75
2022/06/19 06:57:12;;;;;;;0.00;0.00;;;32.40;57.00;;;;;;5063927;28;20115;-75
2022/06/19 06:59:37;;;;;;;0.00;0.00;;;32.90;56.60;;;;;;5065997;28;20051;-78
2022/06/19 07:02:06;;;;;;;0.00;0.00;;;33.40;55.90;;;;;;5075179;28;20041;-75
2022/06/19 07:04:31;;;;;;;0.00;0.00;;;33.80;53.40;;;;;;5063866;28;20044;-79
2022/06/19 07:06:57;;;;;;;0.00;0.00;;;34.10;53.30;;;;;;5068201;28;20068;-79
2022/06/19 07:09:23;;;;;;;0.00;0.00;;;34.10;51.10;;;;;;5049020;28;20091;-75
2022/06/19 07:11:49;;;;;;;0.00;0.00;;;34.30;50.60;;;;;;5047225;28;20028;-75
2022/06/19 07:14:17;;;;;;;0.00;0.00;;;34.40;50.50;;;;;;5053738;28;20024;-75
2022/06/19 07:16:43;;;;;;;0.00;0.00;;;34.40;50.10;;;;;;5065317;28;20097;-75
2022/06/19 07:19:10;;;;;;;0.00;0.00;;;34.40;49.70;;;;;;5069846;28;20021;-76
2022/06/19 07:21:36;;;;;;;0.00;0.00;;;34.50;50.00;;;;;;5071622;28;20091;-76
2022/06/19 07:24:02;;;;;;;0.00;0.00;;;34.50;49.90;;;;;;5051332;28;20037;-75
2022/06/19 07:26:28;;;;;;;0.00;0.00;;;34.10;49.30;;;;;;5068307;28;20021;-75
2022/06/19 07:28:55;;;;;;;0.00;0.00;;;33.10;50.00;;;;;;5067387;28;20020;-76
2022/06/19 07:31:21;;;;;;;0.00;0.00;;;32.20;51.80;;;;;;5064447;28;20211;-77
2022/06/19 07:33:46;;;;;;;0.00;0.00;;;31.50;52.60;;;;;;5064121;28;20276;-75
2022/06/19 07:36:15;;;;;;;0.00;0.00;;;30.90;53.30;;;;;;5069993;28;20031;-76
2022/06/19 07:38:41;;;;;;;0.00;0.00;;;30.30;54.50;;;;;;5067286;28;20024;-76
2022/06/19 07:41:07;;;;;;;0.00;0.00;;;29.80;55.70;;;;;;5050595;28;20036;-78
2022/06/19 07:43:33;;;;;;;0.00;0.00;;;29.50;55.90;;;;;;5064095;28;20166;-76
2022/06/19 07:45:59;;;;;;;0.00;0.00;;;29.20;55.90;;;;;;5068099;28;20312;-75
2022/06/19 07:51:08;;;;;;;0.00;0.00;;;28.90;56.80;;;;;;5067315;28;20047;-75
2022/06/19 07:53:34;;;;;;;0.00;0.00;;;28.90;57.00;;;;;;5068758;28;20033;-75
2022/06/19 07:56:00;;;;;;;0.00;0.00;;;28.90;57.20;;;;;;5067603;28;20211;-78
2022/06/19 07:58:25;;;;;;;0.00;0.00;;;29.00;57.10;;;;;;5072098;28;20232;-75
2022/06/19 08:00:51;;;;;;;0.00;0.00;;;29.50;56.40;;;;;;5064543;28;20379;-78
2022/06/19 08:03:17;;;;;;;0.00;0.00;;;30.10;55.70;;;;;;5066991;28;20100;-80
2022/06/19 08:05:46;;;;;;;0.00;0.00;;;31.00;55.40;;;;;;5049105;28;20048;-76
2022/06/19 08:08:18;;;;;;;0.00;0.00;;;32.20;53.40;;;;;;5067847;28;20037;-75
2022/06/19 08:10:47;;;;;;;0.00;0.00;;;33.60;51.00;;;;;;5069202;28;20269;-75
2022/06/19 08:13:13;;;;;;;0.00;0.00;;;34.70;49.10;;;;;;5067411;28;20024;-79
2022/06/19 08:15:38;;;;;;;0.00;0.00;;;35.60;47.70;;;;;;5047787;28;20082;-74
2022/06/19 08:18:04;;;;;;;0.00;0.00;;;36.30;46.10;;;;;;5067895;28;20087;-78
2022/06/19 08:20:30;;;;;;;0.00;0.00;;;36.90;44.80;;;;;;5064915;28;20130;-75
2022/06/19 08:22:56;;;;;;;0.00;0.00;;;37.30;44.20;;;;;;5071949;28;20036;-76
2022/06/19 08:25:23;;;;;;;0.00;0.00;;;37.70;44.60;;;;;;5059825;28;20362;-78
2022/06/19 08:27:50;;;;;;;0.00;0.00;;;38.10;43.30;;;;;;5064644;28;20100;-78
2022/06/19 08:30:20;;;;;;;0.00;0.00;;;38.20;42.70;;;;;;5065077;28;20014;-77
2022/06/19 08:32:46;;;;;;;0.00;0.00;;;38.60;42.70;;;;;;5068364;28;20024;-78
2022/06/19 08:35:12;;;;;;;0.00;0.00;;;39.00;42.20;;;;;;5064672;28;20223;-76
2022/06/19 08:37:41;;;;;;;0.00;0.00;;;39.40;41.70;;;;;;5049110;28;20039;-77
2022/06/19 08:40:28;;;;;;;0.00;0.00;;;39.40;41.10;;;;;;5050921;28;20032;-75
2022/06/19 08:43:29;;;;;;;0.00;0.00;;;39.70;41.30;;;;;;5066441;28;20279;-76
2022/06/19 08:46:22;;;;;;;0.00;0.00;;;40.30;40.50;;;;;;5027227;28;20059;-76
2022/06/19 08:48:57;;;;;;;0.00;0.00;;;40.70;39.90;;;;;;5069247;28;20082;-75
2022/06/19 08:51:41;;;;;;;0.00;0.00;;;40.10;39.50;;;;;;5063592;28;20084;-77
2022/06/19 08:54:25;;;;;;;0.00;0.00;;;39.80;40.60;;;;;;5048647;28;20232;-81
2022/06/19 08:57:01;;;;;;;0.00;0.00;;;40.30;40.60;;;;;;5064652;28;20013;-76
2022/06/19 08:59:33;;;;;;;;;;;40.60;39.80;;;;;;5066889;28;20029;-82
2022/06/19 09:02:26;;;;;;;0.00;0.00;;;41.30;39.60;;;;;;5065846;28;20196;-79
2022/06/19 09:08:07;;;;;;;0.00;0.00;;;41.00;39.20;;;;;;5059878;28;20087;-74
2022/06/19 09:10:51;;;;;;;0.00;0.00;;;40.60;39.10;;;;;;5066511;28;20040;-75
2022/06/19 09:13:42;;;;;;;0.00;0.00;;;40.30;39.60;;;;;;5064398;28;20044;-74
2022/06/19 09:16:14;;;;;;;0.00;0.00;;;40.10;40.10;;;;;;5065707;28;20028;-74
2022/06/19 09:18:46;;;;;;;0.00;0.00;;;40.60;39.50;;;;;;5063702;28;20013;-76
2022/06/19 09:21:18;;;;;;;0.00;0.00;;;40.70;39.00;;;;;;5062698;28;20210;-74
2022/06/19 09:24:06;;;;;;;0.00;0.00;;;41.00;39.10;;;;;;5046789;28;20033;-75
2022/06/19 09:26:35;;;;;;;0.00;0.00;;;41.50;38.40;;;;;;5062396;28;20037;-75
2022/06/19 09:29:16;;;;;;;0.00;0.00;;;41.30;38.60;;;;;;5067137;28;20107;-76
2022/06/19 09:31:43;;;;;;;0.00;0.00;;;42.00;38.40;;;;;;5066162;28;20089;-76
2022/06/19 09:34:28;;;;;;;0.00;0.00;;;42.50;38.30;;;;;;5070721;28;20023;-78
2022/06/19 09:37:10;;;;;;;0.00;0.00;;;42.90;38.00;;;;;;5068503;28;20032;-75
2022/06/19 09:39:49;;;;;;;0.00;0.00;;;42.80;37.30;;;;;;5063016;28;20017;-76
2022/06/19 09:42:33;;;;;;;0.00;0.00;;;43.10;37.80;;;;;;5064476;28;20067;-76
2022/06/19 09:45:11;;;;;;;0.00;0.00;;;43.70;37.40;;;;;;5048923;28;20143;-76
2022/06/19 09:47:56;;;;;;;0.00;0.00;;;43.90;37.20;;;;;;5063293;28;20017;-76
2022/06/19 09:50:28;;;;;;;;;;;44.40;36.40;;;;;;5063265;28;20059;-75
2022/06/19 09:53:06;;;;;;;0.00;0.00;;;44.60;36.50;;;;;;5043752;28;19948;-76
2022/06/19 09:55:44;;;;;;;0.00;0.00;;;44.50;35.80;;;;;;5063156;28;20027;-75
2022/06/19 09:58:32;;;;;;;0.00;0.00;;;44.90;35.90;;;;;;5061224;28;20020;-78
2022/06/19 10:01:00;;;;;;;0.00;0.00;;;44.50;36.20;;;;;;5073717;28;20052;-74
2022/06/19 10:03:40;;;;;;;0.00;0.00;;;45.00;36.20;;;;;;5083384;28;20036;-75
2022/06/19 10:06:34;;;;;;;0.00;0.00;;;45.00;35.70;;;;;;5086390;28;20087;-75
2022/06/19 10:09:10;;;;;;;0.00;0.00;;;43.90;35.90;;;;;;5085461;28;20359;-76
2022/06/19 10:11:39;;;;;;;0.00;0.00;;;43.10;36.00;;;;;;5083151;28;20099;-75
2022/06/19 10:14:38;;;;;;;0.00;0.00;;;42.70;36.70;;;;;;5076394;28;20024;-75
2022/06/19 10:17:23;;;;;;;0.00;0.00;;;42.50;37.20;;;;;;5079713;28;20024;-76
2022/06/19 10:20:03;;;;;;;0.00;0.00;;;42.30;37.60;;;;;;5086795;28;20188;-78
2022/06/19 10:22:39;;;;;;;0.00;0.00;;;43.30;37.50;;;;;;5086355;28;20282;-76
2022/06/19 10:25:04;;;;;;;;;;;43.70;37.00;;;;;;5090192;28;20334;-75
2022/06/19 10:27:52;;;;;;;0.00;0.00;;;44.80;37.00;;;;;;5082711;28;19900;-81
2022/06/19 10:30:55;;;;;;;0.00;0.00;;;45.50;35.50;;;;;;5084353;28;20039;-76
2022/06/19 10:33:53;;;;;;;0.00;0.00;;;45.90;35.60;;;;;;5086010;28;20031;-76
2022/06/19 10:36:45;;;;;;;0.00;0.00;;;45.70;35.10;;;;;;5085259;28;20024;-79
2022/06/19 10:39:10;;;;;;;0.00;0.00;;;45.70;35.40;;;;;;5086612;28;20077;-74
2022/06/19 10:42:01;;;;;;;0.00;0.00;;;45.70;35.80;;;;;;5079504;28;20122;-75
2022/06/19 10:44:47;;;;;;;0.00;0.00;;;45.90;35.30;;;;;;5079049;28;20158;-78
2022/06/19 10:47:31;;;;;;;0.00;0.00;;;45.60;34.90;;;;;;5084095;28;20027;-75
2022/06/19 10:50:07;;;;;;;0.00;0.00;;;45.00;35.60;;;;;;5086074;28;20259;-80
2022/06/19 10:52:54;;;;;;;0.00;0.00;;;45.50;35.40;;;;;;5084648;28;20286;-76
2022/06/19 10:55:44;;;;;;;0.00;0.00;;;45.70;35.00;;;;;;5088052;28;20020;-75
2022/06/19 10:58:25;;;;;;;0.00;0.00;;;45.40;35.40;;;;;;5083405;28;20091;-75
2022/06/19 11:00:54;;;;;;;0.00;0.00;;;45.60;35.50;;;;;;5088156;28;20537;-75
2022/06/19 11:06:34;;;;;;;0.00;0.00;;;45.50;35.50;;;;;;5091052;28;20361;-78
2022/06/19 11:09:07;;;;;;;0.00;0.00;;;45.60;35.70;;;;;;5083858;28;20038;-75
2022/06/19 11:11:36;;;;;;;0.00;0.00;;;45.40;35.30;;;;;;5087981;28;20141;-76
2022/06/19 11:14:07;;;;;;;0.00;0.00;;;45.30;35.30;;;;;;5091819;28;20088;-76
2022/06/19 11:16:51;;;;;;;0.00;0.00;;;45.50;36.00;;;;;;5087474;28;20095;-75
2022/06/19 11:19:47;;;;;;;0.00;0.00;;;45.50;35.10;;;;;;5085704;28;20599;-77
2022/06/19 11:22:32;;;;;;;0.00;0.00;;;44.60;35.50;;;;;;5077382;28;20040;-76
2022/06/19 11:25:19;;;;;;;0.00;0.00;;;44.20;36.30;;;;;;5081925;28;20298;-76
2022/06/19 11:27:53;;;;;;;0.00;0.00;;;43.90;36.10;;;;;;5082888;28;20105;-75
2022/06/19 11:30:33;;;;;;;0.00;0.00;;;43.20;36.20;;;;;;5088712;28;20207;-76
2022/06/19 11:33:00;;;;;;;0.00;0.00;;;42.50;36.50;;;;;;5090754;28;20051;-77
2022/06/19 11:35:40;;;;;;;0.00;0.00;;;41.70;37.10;;;;;;5089185;28;20020;-76
2022/06/19 11:38:07;;;;;;;0.00;0.00;;;40.80;37.70;;;;;;5093551;28;20012;-76
2022/06/19 11:40:37;;;;;;;;;;;39.50;38.50;;;;;;5088234;28;20021;-82
2022/06/19 11:43:05;;;;;;;0.00;0.00;;;38.50;39.60;;;;;;5087219;28;19908;-75
2022/06/19 11:45:36;;;;;;;0.00;0.00;;;37.50;40.40;;;;;;5089822;28;20031;-75
2022/06/19 11:48:12;;;;;;;0.00;0.00;;;36.80;41.40;;;;;;5082031;28;20232;-79
2022/06/19 11:50:51;;;;;;;0.00;0.00;;;35.90;42.10;;;;;;5087707;28;20091;-78
2022/06/19 11:53:25;;;;;;;0.00;0.00;;;35.10;43.20;;;;;;5088299;28;20302;-75
2022/06/19 11:56:11;;;;;;;0.00;0.00;;;34.50;44.10;;;;;;5087475;28;20020;-75
2022/06/19 11:58:50;;;;;;;0.00;0.00;;;34.10;44.80;;;;;;5084985;28;20032;-78
2022/06/19 12:01:18;;;;;;;0.00;0.00;;;33.80;45.50;;;;;;5065640;28;20367;-75
2022/06/19 12:03:50;;;;;;;0.00;0.00;;;33.40;45.50;;;;;;5047264;28;20274;-75
2022/06/19 12:06:18;;;;;;;0.00;0.00;;;33.10;46.20;;;;;;5067242;28;20328;-76
2022/06/19 12:09:00;;;;;;;0.00;0.00;;;32.90;46.50;;;;;;5066276;28;20066;-75
2022/06/19 12:11:55;;;;;;;0.00;0.00;;;32.70;46.90;;;;;;5063322;28;20036;-76
2022/06/19 12:14:38;;;;;;;0.00;0.00;;;32.60;46.90;;;;;;5051757;28;20024;-76
2022/06/19 12:17:33;;;;;;;0.00;0.00;;;32.50;47.30;;;;;;5062520;28;20017;-75
2022/06/19 12:20:00;;;;;;;0.00;0.00;;;32.40;47.40;;;;;;5066275;28;20074;-75
2022/06/19 12:22:49;;;;;;;0.00;0.00;;;32.30;47.50;;;;;;5067218;28;20793;-75
2022/06/19 12:25:21;;;;;;;0.00;0.00;;;32.20;48.10;;;;;;5063452;28;20027;-76
2022/06/19 12:28:08;;;;;;;0.00;0.00;;;32.20;48.30;;;;;;5067751;28;20028;-81
2022/06/19 12:30:57;;;;;;;0.00;0.00;;;32.10;48.10;;;;;;5064444;28;20067;-82
2022/06/19 12:33:30;;;;;;;0.00;0.00;;;32.10;48.20;;;;;;5069752;28;20052;-75
2022/06/19 12:35:56;;;;;;;0.00;0.00;;;32.10;48.20;;;;;;5067757;28;20020;-75
2022/06/19 12:38:24;;;;;;;0.00;0.00;;;32.00;48.20;;;;;;5052427;28;20315;-76
2022/06/19 12:41:09;;;;;;;0.00;0.00;;;32.00;48.30;;;;;;5050373;28;20021;-76
2022/06/19 12:43:50;;;;;;;0.00;0.00;;;31.90;48.50;;;;;;5048580;28;20039;-77
2022/06/19 12:46:28;;;;;;;0.00;0.00;;;31.90;48.90;;;;;;5070286;28;20300;-75
2022/06/19 12:49:02;;;;;;;0.00;0.00;;;31.90;49.10;;;;;;5062497;28;20682;-75
2022/06/19 12:51:49;;;;;;;0.00;0.00;;;31.90;49.30;;;;;;5068589;28;20044;-77
2022/06/19 12:54:34;;;;;;;0.00;0.00;;;32.00;49.50;;;;;;5070231;28;20074;-74
2022/06/19 12:57:21;;;;;;;0.00;0.00;;;31.90;49.70;;;;;;5049483;28;20029;-78
2022/06/19 12:59:47;;;;;;;0.00;0.00;;;32.00;49.50;;;;;;5066531;28;20321;-78
2022/06/19 13:02:32;;;;;;;0.00;0.00;;;32.00;49.90;;;;;;5052197;28;20085;-76
2022/06/19 13:05:31;;;;;;;0.00;0.00;;;31.90;49.80;;;;;;5064194;28;20100;-78
2022/06/19 13:08:05;;;;;;;0.00;0.00;;;31.80;50.10;;;;;;5065340;28;20029;-81
2022/06/19 13:10:52;;;;;;;0.00;0.00;;;31.70;49.00;;;;;;5065341;28;20016;-77
2022/06/19 13:13:56;;;;;;;0.00;0.00;;;31.70;49.00;;;;;;5067714;28;20532;-75
2022/06/19 13:16:54;;;;;;;0.00;0.00;;;31.60;49.60;;;;;;5027202;28;20027;-76
2022/06/19 13:19:30;;;;;;;0.00;0.00;;;31.60;50.50;;;;;;5069451;28;20027;-75
2022/06/19 13:22:12;;;;;;;0.00;0.00;;;31.60;50.80;;;;;;5062216;28;20021;-75